Time;durP1;ratioP1;P1;durP2;ratioP2;P2;SDS_P1;SDS_P2;PMS_P1;PMS_P2;Temp;Humidity;BMP_temperature;BMP_pressure;BME280_temperature;BME280_humidity;BME280_pressure;Samples;Min_cycle;Max_cycle;Signal;HPM_P1;HPM_P2
2021/12/12 00:00:03;;;;;;;9.70;5.17;;;;;;;;;;5006941;28;20175;-54
2021/12/12 00:02:56;;;;;;;9.93;5.27;;;;;;;;;;4994858;28;20607;-54
2021/12/12 00:05:24;;;;;;;9.13;5.67;;;;;;;;;;5010041;28;20185;-54
2021/12/12 00:07:50;;;;;;;8.87;5.50;;;;;;;;;;5027919;28;20181;-54
2021/12/12 00:10:19;;;;;;;9.47;5.30;;;;;;;;;;5012744;28;20546;-54
2021/12/12 00:12:48;;;;;;;11.30;5.50;;;;;;;;;;4992856;28;20261;-54
2021/12/12 00:15:15;;;;;;;9.03;5.57;;;;;;;;;;5027350;28;20178;-54
2021/12/12 00:17:41;;;;;;;7.33;5.60;;;;;;;;;;5010149;28;20264;-54
2021/12/12 00:20:09;;;;;;;8.30;5.43;;;;;;;;;;5028444;28;20717;-56
2021/12/12 00:22:35;;;;;;;9.70;5.03;;;;;;;;;;5010023;28;20289;-54
2021/12/12 00:25:01;;;;;;;9.83;5.70;;;;;;;;;;5030410;28;20257;-54
2021/12/12 00:27:27;;;;;;;10.67;6.10;;;;;;;;;;5031959;28;20176;-54
2021/12/12 00:29:53;;;;;;;7.50;5.93;;;;;;;;;;5036905;28;20181;-54
2021/12/12 00:32:24;;;;;;;10.00;5.10;;;;;;;;;;5031667;28;20189;-54
2021/12/12 00:34:52;;;;;;;11.13;5.37;;;;;;;;;;5031861;28;20216;-54
2021/12/12 00:37:19;;;;;;;10.97;6.13;;;;;;;;;;5031555;28;20205;-54
2021/12/12 00:39:50;;;;;;;8.33;5.20;;;;;;;;;;5031189;28;20205;-54
2021/12/12 00:42:18;;;;;;;8.80;5.23;;;;;;;;;;5031851;28;20212;-54
2021/12/12 00:44:45;;;;;;;9.43;6.23;;;;;;;;;;5019137;28;20186;-54
2021/12/12 00:47:12;;;;;;;10.30;6.07;;;;;;;;;;5032911;28;20455;-54
2021/12/12 00:49:40;;;;;;;9.47;5.60;;;;;;;;;;5013519;28;20197;-54
2021/12/12 00:52:08;;;;;;;8.90;5.97;;;;;;;;;;5031929;28;20316;-54
2021/12/12 00:54:35;;;;;;;7.03;5.47;;;;;;;;;;5013363;28;20629;-54
2021/12/12 00:57:08;;;;;;;9.57;5.67;;;;;;;;;;5013238;28;20197;-54
2021/12/12 00:59:35;;;;;;;8.00;5.57;;;;;;;;;;5016343;28;20188;-55
2021/12/12 01:02:02;;;;;;;10.30;5.87;;;;;;;;;;5013482;28;20205;-61
2021/12/12 01:04:30;;;;;;;7.57;5.60;;;;;;;;;;5009858;28;20546;-54
2021/12/12 01:06:58;;;;;;;9.40;5.83;;;;;;;;;;4994630;28;20198;-54
2021/12/12 01:09:32;;;;;;;9.17;6.07;;;;;;;;;;5030949;28;20185;-54
2021/12/12 01:11:59;;;;;;;8.10;5.23;;;;;;;;;;5013523;28;20173;-54
2021/12/12 01:14:28;;;;;;;9.90;5.87;;;;;;;;;;4996321;28;20217;-54
2021/12/12 01:16:54;;;;;;;8.77;5.03;;;;;;;;;;5013133;28;20182;-54
2021/12/12 01:19:24;;;;;;;9.73;5.47;;;;;;;;;;5033274;28;20190;-54
2021/12/12 01:21:53;;;;;;;10.67;5.50;;;;;;;;;;5012189;28;20201;-54
2021/12/12 01:24:24;;;;;;;12.77;6.13;;;;;;;;;;5028725;28;20273;-54
2021/12/12 01:26:50;;;;;;;8.83;5.73;;;;;;;;;;5013070;28;20197;-54
2021/12/12 01:29:17;;;;;;;8.27;4.77;;;;;;;;;;5029741;28;20182;-54
2021/12/12 01:31:47;;;;;;;7.87;5.53;;;;;;;;;;5012643;28;20544;-54
2021/12/12 01:34:15;;;;;;;6.20;5.33;;;;;;;;;;5029555;28;20185;-55
2021/12/12 01:37:06;;;;;;;7.93;5.70;;;;;;;;;;5030773;28;20181;-54
2021/12/12 01:39:35;;;;;;;8.77;5.37;;;;;;;;;;5030027;28;20189;-54
2021/12/12 01:42:07;;;;;;;8.03;5.37;;;;;;;;;;5030485;28;20617;-54
2021/12/12 01:44:46;;;;;;;6.37;5.30;;;;;;;;;;5025376;28;20182;-54
2021/12/12 01:47:19;;;;;;;8.33;5.10;;;;;;;;;;4993329;28;20188;-54
2021/12/12 01:49:47;;;;;;;7.40;5.27;;;;;;;;;;5029642;28;20178;-54
2021/12/12 01:52:16;;;;;;;8.97;5.27;;;;;;;;;;5023292;28;20501;-55
2021/12/12 01:54:45;;;;;;;9.77;5.50;;;;;;;;;;4997554;28;20497;-54
2021/12/12 01:57:37;;;;;;;8.13;5.50;;;;;;;;;;4992689;28;20445;-54
2021/12/12 02:00:14;;;;;;;5.90;4.83;;;;;;;;;;4988388;28;20426;-54
2021/12/12 02:02:41;;;;;;;8.43;4.97;;;;;;;;;;4990264;28;20198;-54
2021/12/12 02:05:10;;;;;;;7.87;5.17;;;;;;;;;;4999362;28;20422;-54
2021/12/12 02:07:39;;;;;;;9.20;5.47;;;;;;;;;;5003308;28;20677;-54
2021/12/12 02:10:17;;;;;;;8.00;5.43;;;;;;;;;;4986963;28;20183;-54
2021/12/12 02:12:44;;;;;;;7.07;4.90;;;;;;;;;;5006788;28;20564;-54
2021/12/12 02:15:11;;;;;;;6.13;4.37;;;;;;;;;;4996404;28;20195;-54
2021/12/12 02:17:42;;;;;;;6.43;4.20;;;;;;;;;;4984846;28;20821;-54
2021/12/12 02:20:18;;;;;;;9.57;5.10;;;;;;;;;;4989673;28;20220;-54
2021/12/12 02:22:57;;;;;;;8.17;4.37;;;;;;;;;;5005375;28;20204;-55
2021/12/12 02:36:29;;;;;;;6.93;4.27;;;;;;;;;;5003239;28;20202;-54
2021/12/12 02:38:55;;;;;;;7.23;4.27;;;;;;;;;;4993612;28;20230;-54
2021/12/12 02:41:24;;;;;;;8.43;4.43;;;;;;;;;;4990153;28;20429;-55
2021/12/12 02:43:53;;;;;;;7.03;4.53;;;;;;;;;;5008771;28;20588;-54
2021/12/12 02:46:27;;;;;;;6.10;4.40;;;;;;;;;;5006121;28;20904;-54
2021/12/12 02:49:03;;;;;;;9.90;4.53;;;;;;;;;;4995290;28;20185;-54
2021/12/12 02:51:29;;;;;;;7.60;4.30;;;;;;;;;;4975427;28;20429;-54
2021/12/12 02:53:56;;;;;;;8.37;4.50;;;;;;;;;;4976445;28;20473;-54
2021/12/12 02:56:25;;;;;;;5.63;4.27;;;;;;;;;;4979111;28;20206;-54
2021/12/12 02:58:52;;;;;;;5.37;3.87;;;;;;;;;;4991855;28;20268;-55
2021/12/12 03:01:21;;;;;;;9.80;4.07;;;;;;;;;;4990169;28;20641;-54
2021/12/12 03:03:49;;;;;;;9.17;4.53;;;;;;;;;;4975570;28;20189;-55
2021/12/12 03:06:18;;;;;;;7.53;3.87;;;;;;;;;;4974934;28;20512;-54
2021/12/12 03:08:45;;;;;;;4.47;3.90;;;;;;;;;;5007681;28;20664;-54
2021/12/12 03:11:12;;;;;;;7.17;4.20;;;;;;;;;;4990968;28;20186;-55
2021/12/12 03:13:39;;;;;;;8.00;4.53;;;;;;;;;;5008680;28;20182;-54
2021/12/12 03:16:07;;;;;;;7.63;4.10;;;;;;;;;;5007680;28;20178;-54
2021/12/12 03:18:39;;;;;;;5.33;3.90;;;;;;;;;;4989663;28;20701;-55
2021/12/12 03:21:14;;;;;;;6.13;4.23;;;;;;;;;;5008838;28;20170;-57
2021/12/12 03:23:42;;;;;;;9.03;3.80;;;;;;;;;;5005151;28;20706;-55
2021/12/12 03:26:10;;;;;;;5.37;4.07;;;;;;;;;;5006721;28;20206;-54
2021/12/12 03:28:38;;;;;;;9.47;4.20;;;;;;;;;;5008265;28;20587;-54
2021/12/12 03:31:09;;;;;;;6.50;3.60;;;;;;;;;;4989028;28;20178;-55
2021/12/12 03:33:35;;;;;;;5.90;3.90;;;;;;;;;;5008444;28;20182;-55
2021/12/12 03:36:04;;;;;;;5.77;3.90;;;;;;;;;;5007886;28;20182;-56
2021/12/12 03:38:31;;;;;;;6.23;4.10;;;;;;;;;;4990539;28;20217;-54
2021/12/12 03:40:58;;;;;;;5.53;4.10;;;;;;;;;;5008023;28;20175;-54
2021/12/12 03:43:24;;;;;;;6.90;3.77;;;;;;;;;;4989880;28;20603;-54
2021/12/12 03:45:51;;;;;;;9.83;4.67;;;;;;;;;;4983303;28;21406;-54
2021/12/12 03:48:22;;;;;;;8.60;4.30;;;;;;;;;;5008927;28;20185;-54
2021/12/12 03:50:50;;;;;;;6.30;4.07;;;;;;;;;;4990442;28;20182;-54
2021/12/12 03:53:17;;;;;;;10.90;4.53;;;;;;;;;;5006480;28;20214;-54
2021/12/12 03:55:44;;;;;;;5.67;3.67;;;;;;;;;;4990562;28;20432;-54
2021/12/12 03:58:11;;;;;;;7.30;4.03;;;;;;;;;;4991008;28;20198;-54
2021/12/12 04:00:40;;;;;;;4.20;3.27;;;;;;;;;;4994082;28;21034;-54
2021/12/12 04:03:07;;;;;;;8.47;4.40;;;;;;;;;;5004873;28;20581;-54
2021/12/12 04:05:34;;;;;;;5.97;4.40;;;;;;;;;;5012238;28;20688;-54
2021/12/12 04:08:00;;;;;;;4.80;3.40;;;;;;;;;;4993995;28;20186;-54
2021/12/12 04:10:26;;;;;;;9.87;5.23;;;;;;;;;;4993698;28;20509;-54
2021/12/12 04:12:54;;;;;;;6.47;4.33;;;;;;;;;;4994150;28;20437;-54
2021/12/12 04:15:22;;;;;;;6.93;3.87;;;;;;;;;;4993410;28;20189;-54
2021/12/12 04:17:49;;;;;;;5.87;3.97;;;;;;;;;;4993802;28;20181;-54
2021/12/12 04:20:17;;;;;;;8.97;4.20;;;;;;;;;;5005214;28;20421;-53
2021/12/12 04:22:44;;;;;;;6.60;3.63;;;;;;;;;;5011903;28;20336;-54
2021/12/12 04:25:10;;;;;;;4.77;3.90;;;;;;;;;;4995267;28;20175;-53
2021/12/12 04:27:36;;;;;;;8.70;4.37;;;;;;;;;;4993310;28;20261;-53
2021/12/12 04:30:04;;;;;;;7.00;4.33;;;;;;;;;;5010719;28;20217;-54
2021/12/12 04:32:30;;;;;;;5.53;3.77;;;;;;;;;;4993946;28;20178;-54
2021/12/12 04:34:58;;;;;;;6.43;3.77;;;;;;;;;;5012303;28;20814;-54
2021/12/12 04:37:26;;;;;;;5.00;4.23;;;;;;;;;;4994452;28;20182;-54
2021/12/12 04:39:56;;;;;;;9.57;4.20;;;;;;;;;;4994004;28;20194;-54
2021/12/12 04:42:25;;;;;;;5.50;4.37;;;;;;;;;;4994117;28;20684;-54
2021/12/12 04:44:54;;;;;;;5.17;3.63;;;;;;;;;;4992805;28;20178;-54
2021/12/12 04:50:41;;;;;;;8.27;4.20;;;;;;;;;;5006924;28;20177;-54
2021/12/12 04:53:09;;;;;;;8.73;4.30;;;;;;;;;;4993416;28;20457;-53
2021/12/12 04:55:41;;;;;;;8.57;5.03;;;;;;;;;;4994204;28;20229;-53
2021/12/12 04:58:10;;;;;;;7.70;4.13;;;;;;;;;;5012868;28;20187;-54
2021/12/12 05:00:48;;;;;;;7.77;4.23;;;;;;;;;;4991367;28;20185;-53
2021/12/12 05:03:18;;;;;;;10.57;4.57;;;;;;;;;;4988846;28;20194;-54
2021/12/12 05:05:48;;;;;;;8.50;4.57;;;;;;;;;;4995508;28;20902;-53
2021/12/12 05:08:27;;;;;;;9.17;5.13;;;;;;;;;;5010061;28;20273;-53
2021/12/12 05:11:03;;;;;;;12.07;5.30;;;;;;;;;;5010101;28;20266;-54
2021/12/12 05:13:37;;;;;;;6.27;4.00;;;;;;;;;;5008604;28;20182;-54
2021/12/12 05:16:28;;;;;;;6.70;4.13;;;;;;;;;;4989570;28;20469;-54
2021/12/12 05:19:01;;;;;;;5.97;3.67;;;;;;;;;;4998924;28;20205;-54
2021/12/12 05:21:29;;;;;;;8.47;5.07;;;;;;;;;;5010733;28;20186;-55
2021/12/12 05:24:05;;;;;;;6.23;4.40;;;;;;;;;;4996318;28;20182;-54
2021/12/12 05:26:33;;;;;;;6.27;4.20;;;;;;;;;;4993507;28;20182;-54
2021/12/12 05:29:06;;;;;;;9.53;5.20;;;;;;;;;;4992968;28;20695;-54
2021/12/12 05:31:33;;;;;;;7.30;4.53;;;;;;;;;;5010538;28;20182;-54
2021/12/12 05:33:59;;;;;;;6.87;4.27;;;;;;;;;;4993445;28;20186;-54
2021/12/12 05:36:26;;;;;;;9.30;5.33;;;;;;;;;;4993958;28;20185;-54
2021/12/12 05:38:53;;;;;;;11.23;5.33;;;;;;;;;;5011043;28;20185;-54
2021/12/12 05:41:20;;;;;;;6.00;4.90;;;;;;;;;;5010894;28;20920;-54
2021/12/12 05:43:48;;;;;;;9.13;4.73;;;;;;;;;;5010723;28;20252;-54
2021/12/12 05:46:18;;;;;;;8.97;5.03;;;;;;;;;;5009480;28;20182;-54
2021/12/12 05:48:48;;;;;;;8.23;4.43;;;;;;;;;;4993365;28;20740;-54
2021/12/12 05:51:15;;;;;;;6.07;4.33;;;;;;;;;;4993114;28;20194;-54
2021/12/12 05:53:41;;;;;;;8.60;4.23;;;;;;;;;;4994412;28;20214;-55
2021/12/12 05:56:07;;;;;;;8.20;5.10;;;;;;;;;;4992642;28;20198;-54
2021/12/12 05:58:34;;;;;;;8.33;4.93;;;;;;;;;;4992612;28;20271;-54
2021/12/12 06:01:04;;;;;;;10.20;4.83;;;;;;;;;;5009104;28;20178;-54
2021/12/12 06:03:33;;;;;;;9.97;4.90;;;;;;;;;;4992763;28;20617;-54
2021/12/12 06:06:00;;;;;;;6.93;5.07;;;;;;;;;;5010538;28;20741;-54
2021/12/12 06:08:27;;;;;;;10.30;5.37;;;;;;;;;;5010687;28;20355;-54
2021/12/12 06:10:55;;;;;;;7.50;5.13;;;;;;;;;;4992545;28;20528;-54
2021/12/12 06:13:21;;;;;;;12.43;5.60;;;;;;;;;;4993867;28;20748;-54
2021/12/12 06:15:50;;;;;;;8.70;5.33;;;;;;;;;;4989421;28;20208;-54
2021/12/12 06:18:17;;;;;;;7.30;5.37;;;;;;;;;;4992418;28;20184;-54
2021/12/12 06:20:44;;;;;;;9.23;5.53;;;;;;;;;;5001797;28;20801;-53
2021/12/12 06:23:11;;;;;;;7.60;5.10;;;;;;;;;;5009721;28;20282;-54
2021/12/12 06:25:38;;;;;;;6.40;5.13;;;;;;;;;;5009608;28;20221;-54
2021/12/12 06:28:12;;;;;;;9.17;6.27;;;;;;;;;;4991606;28;20264;-54
2021/12/12 06:30:38;;;;;;;9.53;5.50;;;;;;;;;;5008226;28;20204;-54
2021/12/12 06:33:05;;;;;;;7.77;5.97;;;;;;;;;;5009702;28;20186;-52
2021/12/12 06:35:31;;;;;;;8.67;5.60;;;;;;;;;;4992050;28;20546;-54
2021/12/12 06:38:05;;;;;;;7.67;5.23;;;;;;;;;;5011715;28;20248;-54
2021/12/12 06:40:31;;;;;;;10.03;5.83;;;;;;;;;;5009187;28;20186;-53
2021/12/12 06:43:00;;;;;;;9.83;6.23;;;;;;;;;;4984865;28;20310;-54
2021/12/12 06:45:26;;;;;;;9.13;5.40;;;;;;;;;;4990313;28;20265;-54
2021/12/12 06:47:54;;;;;;;7.70;5.90;;;;;;;;;;5009602;28;20174;-54
2021/12/12 06:50:22;;;;;;;8.03;5.83;;;;;;;;;;4991576;28;20205;-54
2021/12/12 06:52:48;;;;;;;7.63;5.53;;;;;;;;;;4974946;28;20190;-54
2021/12/12 06:55:15;;;;;;;8.67;5.57;;;;;;;;;;5005866;28;20218;-54
2021/12/12 06:57:42;;;;;;;7.00;5.87;;;;;;;;;;5002355;28;20707;-54
2021/12/12 07:00:10;;;;;;;5.93;4.83;;;;;;;;;;5007841;28;20189;-54
2021/12/12 07:02:37;;;;;;;8.47;5.43;;;;;;;;;;5003000;28;20572;-54
2021/12/12 07:05:04;;;;;;;7.73;5.67;;;;;;;;;;5005519;28;20189;-54
2021/12/12 07:07:34;;;;;;;10.23;5.97;;;;;;;;;;5007000;28;20181;-54
2021/12/12 07:10:00;;;;;;;10.53;6.03;;;;;;;;;;5007389;28;20171;-54
2021/12/12 07:12:27;;;;;;;11.27;6.27;;;;;;;;;;4989719;28;20187;-54
2021/12/12 07:14:54;;;;;;;6.50;5.70;;;;;;;;;;4984190;28;20615;-53
2021/12/12 07:17:21;;;;;;;10.30;5.63;;;;;;;;;;4989905;28;20186;-54
2021/12/12 07:19:48;;;;;;;6.80;5.87;;;;;;;;;;4993933;28;20182;-54
2021/12/12 07:22:14;;;;;;;9.13;5.97;;;;;;;;;;5011607;28;20264;-53
2021/12/12 07:24:42;;;;;;;9.77;6.33;;;;;;;;;;4989888;28;20185;-54
2021/12/12 07:27:09;;;;;;;6.53;5.73;;;;;;;;;;4999903;28;20608;-54
2021/12/12 07:29:35;;;;;;;9.23;5.67;;;;;;;;;;5007130;28;20572;-54
2021/12/12 07:32:02;;;;;;;7.00;6.23;;;;;;;;;;5008141;28;20216;-54
2021/12/12 07:34:29;;;;;;;8.60;6.00;;;;;;;;;;5008437;28;20260;-54
2021/12/12 07:36:57;;;;;;;7.17;6.17;;;;;;;;;;4993237;28;20293;-55
2021/12/12 07:39:23;;;;;;;9.13;6.50;;;;;;;;;;4989655;28;20547;-54
2021/12/12 07:41:51;;;;;;;9.13;6.83;;;;;;;;;;5006753;28;20218;-54
2021/12/12 07:44:19;;;;;;;7.30;6.43;;;;;;;;;;5006360;28;20678;-54
2021/12/12 07:46:46;;;;;;;8.40;6.27;;;;;;;;;;4972762;28;20174;-54
2021/12/12 07:49:13;;;;;;;8.73;6.43;;;;;;;;;;5006709;28;20567;-54
2021/12/12 07:51:41;;;;;;;7.07;6.37;;;;;;;;;;5006460;28;20175;-54
2021/12/12 07:54:08;;;;;;;7.10;5.93;;;;;;;;;;4992738;28;20202;-54
2021/12/12 07:56:36;;;;;;;7.53;6.37;;;;;;;;;;5000012;28;20191;-54
2021/12/12 07:59:05;;;;;;;8.60;6.33;;;;;;;;;;5007596;28;20205;-55
2021/12/12 08:01:31;;;;;;;10.07;7.03;;;;;;;;;;4988539;28;20170;-54
2021/12/12 08:04:01;;;;;;;6.80;6.10;;;;;;;;;;5001044;28;20228;-54
2021/12/12 08:06:28;;;;;;;7.80;6.80;;;;;;;;;;4988365;28;20202;-54
2021/12/12 08:08:55;;;;;;;8.77;6.37;;;;;;;;;;5007720;28;20281;-54
2021/12/12 08:11:23;;;;;;;8.50;6.87;;;;;;;;;;4990203;28;20183;-54
2021/12/12 08:13:52;;;;;;;7.47;6.63;;;;;;;;;;5007216;28;20178;-54
2021/12/12 08:16:20;;;;;;;6.77;5.93;;;;;;;;;;4989166;28;20214;-54
2021/12/12 08:18:47;;;;;;;8.70;6.80;;;;;;;;;;4991754;28;20182;-54
2021/12/12 08:21:14;;;;;;;10.50;7.73;;;;;;;;;;4991026;28;20187;-54
2021/12/12 08:23:40;;;;;;;8.60;6.57;;;;;;;;;;4989419;28;20210;-54
2021/12/12 08:26:10;;;;;;;7.30;6.60;;;;;;;;;;4986672;28;20179;-54
2021/12/12 08:28:37;;;;;;;7.93;6.93;;;;;;;;;;5003892;28;20175;-54
2021/12/12 08:31:04;;;;;;;7.70;6.87;;;;;;;;;;4985919;28;20182;-54
2021/12/12 08:33:30;;;;;;;7.60;6.57;;;;;;;;;;4996301;28;20183;-54
2021/12/12 08:35:58;;;;;;;8.13;7.10;;;;;;;;;;4994138;28;20668;-54
2021/12/12 08:38:26;;;;;;;7.97;7.17;;;;;;;;;;5003437;28;20190;-54
2021/12/12 08:40:56;;;;;;;7.60;6.80;;;;;;;;;;4988948;28;20269;-54
2021/12/12 08:43:24;;;;;;;7.53;6.70;;;;;;;;;;5005676;28;20661;-54
2021/12/12 08:46:03;;;;;;;7.23;6.53;;;;;;;;;;4993143;28;20186;-54
2021/12/12 08:48:31;;;;;;;7.93;7.17;;;;;;;;;;4992258;28;20297;-54
2021/12/12 08:50:59;;;;;;;10.20;6.40;;;;;;;;;;4992695;28;20185;-55
2021/12/12 08:53:26;;;;;;;7.83;6.73;;;;;;;;;;4992840;28;20305;-54
2021/12/12 08:55:54;;;;;;;7.73;7.00;;;;;;;;;;5002916;28;20209;-55
2021/12/12 08:58:23;;;;;;;7.83;7.03;;;;;;;;;;5008459;28;20182;-54
2021/12/12 09:00:52;;;;;;;7.80;6.37;;;;;;;;;;4996239;28;20675;-54
2021/12/12 09:03:22;;;;;;;9.00;7.10;;;;;;;;;;5000887;28;20207;-55
2021/12/12 09:05:49;;;;;;;7.30;6.17;;;;;;;;;;5007510;28;20566;-54
2021/12/12 09:08:36;;;;;;;8.37;5.97;;;;;;;;;;4992682;28;20190;-54
2021/12/12 09:11:06;;;;;;;7.17;5.87;;;;;;;;;;5012205;28;20181;-54
2021/12/12 09:13:40;;;;;;;6.87;5.70;;;;;;;;;;5011285;28;20534;-55
2021/12/12 09:16:06;;;;;;;6.43;5.73;;;;;;;;;;4989322;28;20175;-55
2021/12/12 09:18:41;;;;;;;7.10;6.30;;;;;;;;;;5016397;28;20182;-55
2021/12/12 09:21:23;;;;;;;7.43;6.67;;;;;;;;;;4992471;28;20646;-54
2021/12/12 09:24:01;;;;;;;7.93;6.53;;;;;;;;;;4994578;28;20252;-54
2021/12/12 09:26:33;;;;;;;9.50;6.83;;;;;;;;;;5002753;28;20912;-55
2021/12/12 09:29:09;;;;;;;7.57;6.77;;;;;;;;;;5008352;28;20186;-54
2021/12/12 09:31:39;;;;;;;8.60;6.43;;;;;;;;;;5003463;28;20198;-54
2021/12/12 09:34:09;;;;;;;7.30;6.57;;;;;;;;;;4995433;28;20183;-54
2021/12/12 09:36:40;;;;;;;11.27;6.47;;;;;;;;;;5004188;28;20347;-55
2021/12/12 09:39:25;;;;;;;8.13;6.63;;;;;;;;;;4992418;28;20189;-54
2021/12/12 09:41:59;;;;;;;7.83;7.00;;;;;;;;;;5004709;28;20189;-54
2021/12/12 09:44:41;;;;;;;7.50;6.30;;;;;;;;;;5009519;28;20281;-54
2021/12/12 09:47:32;;;;;;;9.27;7.10;;;;;;;;;;4989084;28;20174;-54
2021/12/12 09:52:58;;;;;;;7.27;6.00;;;;;;;;;;5006740;28;20276;-54
2021/12/12 09:55:47;;;;;;;7.53;6.53;;;;;;;;;;5009538;28;20657;-54
2021/12/12 09:58:37;;;;;;;8.97;6.40;;;;;;;;;;5028500;28;20276;-54
2021/12/12 10:01:07;;;;;;;7.90;6.77;;;;;;;;;;5026357;28;20173;-54
2021/12/12 10:03:52;;;;;;;6.90;6.20;;;;;;;;;;5007118;28;20204;-54
2021/12/12 10:06:25;;;;;;;7.93;6.37;;;;;;;;;;5003286;28;20324;-54
2021/12/12 10:08:59;;;;;;;8.53;7.27;;;;;;;;;;5020363;28;21539;-54
2021/12/12 10:11:39;;;;;;;6.70;6.07;;;;;;;;;;5031726;28;20170;-54
2021/12/12 10:14:17;;;;;;;7.20;6.07;;;;;;;;;;5006318;28;20763;-54
2021/12/12 10:16:47;;;;;;;9.53;6.60;;;;;;;;;;5023743;28;20665;-54
2021/12/12 10:19:19;;;;;;;8.43;6.40;;;;;;;;;;5011060;28;20406;-54
2021/12/12 10:22:04;;;;;;;6.60;5.97;;;;;;;;;;5010739;28;20182;-54
2021/12/12 10:24:34;;;;;;;7.03;6.33;;;;;;;;;;5019972;28;20878;-54
2021/12/12 10:27:08;;;;;;;6.80;5.30;;;;;;;;;;5015543;28;20231;-54
2021/12/12 10:29:40;;;;;;;7.17;6.47;;;;;;;;;;5008342;28;20170;-54
2021/12/12 10:32:19;;;;;;;6.30;5.70;;;;;;;;;;5009340;28;20178;-54
2021/12/12 10:34:51;;;;;;;8.60;6.17;;;;;;;;;;4994161;28;20755;-54
2021/12/12 10:37:35;;;;;;;7.73;5.90;;;;;;;;;;5008764;28;20704;-54
2021/12/12 10:40:07;;;;;;;6.37;5.70;;;;;;;;;;4987320;28;20190;-62
2021/12/12 10:42:37;;;;;;;7.80;5.97;;;;;;;;;;5014012;28;20190;-55
2021/12/12 10:45:11;;;;;;;7.33;5.10;;;;;;;;;;5011964;28;20170;-54
2021/12/12 10:47:43;;;;;;;8.97;5.37;;;;;;;;;;5017466;28;20216;-54
2021/12/12 10:50:11;;;;;;;5.47;4.80;;;;;;;;;;5005158;28;20648;-54
2021/12/12 10:52:45;;;;;;;6.13;5.20;;;;;;;;;;5026624;28;20174;-54
2021/12/12 10:55:30;;;;;;;6.47;5.20;;;;;;;;;;4988216;28;20234;-55
2021/12/12 10:58:17;;;;;;;5.90;4.90;;;;;;;;;;4995737;28;20182;-54
2021/12/12 11:00:48;;;;;;;8.10;5.53;;;;;;;;;;4994707;28;20246;-54
2021/12/12 11:03:21;;;;;;;5.70;5.10;;;;;;;;;;4990549;28;20227;-54
2021/12/12 11:06:01;;;;;;;6.20;5.60;;;;;;;;;;4999227;28;20642;-55
2021/12/12 11:08:31;;;;;;;6.87;5.00;;;;;;;;;;4999752;28;20182;-54
2021/12/12 11:10:59;;;;;;;7.43;5.63;;;;;;;;;;5008950;28;20229;-55
2021/12/12 11:13:31;;;;;;;7.33;4.97;;;;;;;;;;4990878;28;20522;-54
2021/12/12 11:16:03;;;;;;;7.13;5.37;;;;;;;;;;4990865;28;20183;-55
2021/12/12 11:18:32;;;;;;;5.07;4.57;;;;;;;;;;4990020;28;20693;-55
2021/12/12 11:21:05;;;;;;;5.57;4.93;;;;;;;;;;4989970;28;20656;-54
2021/12/12 11:23:36;;;;;;;7.23;6.17;;;;;;;;;;4993281;28;20211;-55
2021/12/12 11:26:09;;;;;;;5.70;4.80;;;;;;;;;;5005852;28;20179;-54
2021/12/12 11:28:40;;;;;;;7.90;5.13;;;;;;;;;;4974792;28;20210;-54
2021/12/12 11:31:12;;;;;;;6.43;4.97;;;;;;;;;;5006164;28;20268;-54
2021/12/12 11:33:40;;;;;;;7.73;5.33;;;;;;;;;;4994036;28;20193;-54
2021/12/12 11:36:12;;;;;;;8.07;4.97;;;;;;;;;;4990207;28;20197;-54
2021/12/12 11:38:40;;;;;;;7.83;5.27;;;;;;;;;;4993349;28;20305;-54
2021/12/12 11:41:18;;;;;;;6.03;5.10;;;;;;;;;;4997109;28;20182;-55
2021/12/12 11:44:02;;;;;;;6.03;4.73;;;;;;;;;;5002660;28;20198;-54
2021/12/12 11:46:35;;;;;;;4.47;4.07;;;;;;;;;;4995983;28;20179;-55
2021/12/12 11:49:13;;;;;;;8.10;4.93;;;;;;;;;;4994714;28;20655;-54
2021/12/12 11:51:42;;;;;;;7.17;5.13;;;;;;;;;;4971467;28;20225;-54
2021/12/12 11:54:17;;;;;;;5.40;4.90;;;;;;;;;;4988792;28;20231;-54
2021/12/12 11:56:46;;;;;;;5.47;4.60;;;;;;;;;;4999842;28;20657;-55
2021/12/12 11:59:13;;;;;;;6.57;5.60;;;;;;;;;;4997407;28;20622;-54
2021/12/12 12:01:40;;;;;;;9.03;5.30;;;;;;;;;;5003891;28;20186;-55
2021/12/12 12:04:11;;;;;;;5.67;5.00;;;;;;;;;;5003314;28;20256;-55
2021/12/12 12:06:55;;;;;;;5.90;5.37;;;;;;;;;;5007037;28;20533;-54
2021/12/12 12:09:25;;;;;;;7.20;5.47;;;;;;;;;;5006044;28;20182;-54
2021/12/12 12:12:12;;;;;;;6.10;5.37;;;;;;;;;;5005968;28;20545;-55
2021/12/12 12:14:51;;;;;;;6.83;5.43;;;;;;;;;;4993483;28;20206;-54
2021/12/12 12:17:25;;;;;;;7.20;5.40;;;;;;;;;;5000346;28;20213;-54
2021/12/12 12:20:11;;;;;;;5.77;4.93;;;;;;;;;;4984335;28;21048;-55
2021/12/12 12:22:45;;;;;;;6.60;5.50;;;;;;;;;;4991915;28;20196;-55
2021/12/12 12:25:15;;;;;;;5.80;5.07;;;;;;;;;;5002831;28;20194;-55
2021/12/12 12:27:44;;;;;;;6.30;5.17;;;;;;;;;;5007553;28;20578;-55
2021/12/12 12:30:10;;;;;;;6.07;4.93;;;;;;;;;;5009284;28;20217;-59
2021/12/12 12:32:45;;;;;;;5.27;4.77;;;;;;;;;;5002485;28;20178;-55
2021/12/12 12:35:31;;;;;;;6.63;5.63;;;;;;;;;;4993218;28;20182;-55
2021/12/12 12:38:16;;;;;;;5.53;4.77;;;;;;;;;;4990107;28;20178;-55
2021/12/12 12:40:43;;;;;;;5.30;4.80;;;;;;;;;;4993575;28;20191;-55
2021/12/12 12:43:28;;;;;;;6.10;4.90;;;;;;;;;;4992274;28;20543;-54
2021/12/12 12:46:13;;;;;;;6.60;6.00;;;;;;;;;;5010168;28;20189;-54
2021/12/12 12:48:42;;;;;;;6.40;4.83;;;;;;;;;;5011173;28;20525;-54
2021/12/12 12:51:27;;;;;;;5.10;4.60;;;;;;;;;;5008930;28;20217;-55
2021/12/12 12:54:02;;;;;;;7.13;5.27;;;;;;;;;;5012420;28;20227;-54
2021/12/12 12:56:40;;;;;;;6.20;5.60;;;;;;;;;;5031082;28;20201;-53
2021/12/12 12:59:26;;;;;;;7.17;5.70;;;;;;;;;;5008244;28;20182;-55
2021/12/12 13:01:58;;;;;;;6.13;5.53;;;;;;;;;;5028524;28;20539;-54
2021/12/12 13:04:33;;;;;;;6.93;6.23;;;;;;;;;;5011727;28;20192;-55
2021/12/12 13:07:17;;;;;;;8.03;7.23;;;;;;;;;;5029156;28;20228;-54
2021/12/12 13:09:52;;;;;;;9.60;8.53;;;;;;;;;;5008042;28;20233;-54
2021/12/12 13:12:41;;;;;;;10.97;7.97;;;;;;;;;;5022600;28;20186;-54
2021/12/12 13:15:07;;;;;;;9.83;8.83;;;;;;;;;;5011604;28;20186;-54
2021/12/12 13:17:53;;;;;;;10.63;8.43;;;;;;;;;;5017354;28;20173;-53
2021/12/12 13:20:46;;;;;;;8.53;7.73;;;;;;;;;;5030584;28;20284;-53
2021/12/12 13:23:23;;;;;;;9.30;8.30;;;;;;;;;;5009846;28;20229;-54
2021/12/12 13:26:00;;;;;;;9.63;8.17;;;;;;;;;;5012329;28;20181;-54
2021/12/12 13:28:51;;;;;;;8.17;7.37;;;;;;;;;;5029832;28;20589;-53
2021/12/12 13:31:36;;;;;;;9.20;7.63;;;;;;;;;;5028685;28;20257;-53
2021/12/12 13:34:21;;;;;;;8.23;7.10;;;;;;;;;;5012292;28;20181;-54
2021/12/12 13:37:06;;;;;;;8.10;7.40;;;;;;;;;;5021086;28;20722;-53
2021/12/12 13:39:38;;;;;;;9.20;7.07;;;;;;;;;;5010704;28;20561;-53
2021/12/12 13:42:23;;;;;;;7.93;7.23;;;;;;;;;;5011343;28;20683;-53
2021/12/12 13:44:52;;;;;;;8.07;7.00;;;;;;;;;;5024941;28;20182;-54
2021/12/12 13:47:29;;;;;;;7.63;6.83;;;;;;;;;;5024653;28;20254;-54
2021/12/12 13:50:03;;;;;;;8.93;6.93;;;;;;;;;;5021112;28;20177;-53
2021/12/12 13:52:34;;;;;;;7.23;6.53;;;;;;;;;;5029816;28;20216;-53
2021/12/12 13:55:13;;;;;;;16.47;8.63;;;;;;;;;;5008647;28;20223;-54
2021/12/12 13:57:50;;;;;;;15.27;7.17;;;;;;;;;;5026755;28;20201;-54
2021/12/12 14:00:25;;;;;;;8.90;5.73;;;;;;;;;;5010869;28;20273;-54
2021/12/12 14:03:03;;;;;;;31.70;6.07;;;;;;;;;;5012715;28;20201;-53
2021/12/12 14:05:35;;;;;;;11.87;5.40;;;;;;;;;;5029712;28;20185;-53
2021/12/12 14:08:11;;;;;;;15.73;5.77;;;;;;;;;;5016695;28;20182;-54
2021/12/12 14:10:38;;;;;;;6.53;5.60;;;;;;;;;;5026922;28;20231;-53
2021/12/12 14:13:13;;;;;;;6.40;5.80;;;;;;;;;;5002061;28;20182;-53
2021/12/12 14:15:43;;;;;;;17.27;13.03;;;;;;;;;;5004958;28;20174;-54
2021/12/12 14:18:12;;;;;;;15.20;11.80;;;;;;;;;;5028042;28;20189;-54
2021/12/12 14:20:42;;;;;;;13.90;11.47;;;;;;;;;;5026982;28;20315;-54
2021/12/12 14:23:10;;;;;;;14.37;11.47;;;;;;;;;;5011145;28;20583;-54
2021/12/12 14:25:37;;;;;;;11.57;10.37;;;;;;;;;;5010850;28;20651;-51
2021/12/12 14:28:04;;;;;;;13.07;11.20;;;;;;;;;;5027436;28;20181;-55
2021/12/12 14:30:35;;;;;;;14.30;11.63;;;;;;;;;;5028797;28;20181;-55
2021/12/12 14:33:04;;;;;;;19.33;10.73;;;;;;;;;;5018693;28;20574;-55
2021/12/12 14:35:47;;;;;;;12.23;10.83;;;;;;;;;;5025571;28;20186;-55
2021/12/12 14:38:15;;;;;;;12.10;10.70;;;;;;;;;;5009821;28;20177;-55
2021/12/12 14:40:44;;;;;;;14.03;11.17;;;;;;;;;;5010724;28;20186;-55
2021/12/12 14:43:20;;;;;;;12.60;10.80;;;;;;;;;;5009923;28;20530;-58
2021/12/12 14:45:50;;;;;;;22.45;18.13;;;;;;;;;;5009094;28;20421;-59
2021/12/12 14:48:17;;;;;;;22.17;13.93;;;;;;;;;;5028229;28;20257;-57
2021/12/12 14:51:01;;;;;;;16.73;13.77;;;;;;;;;;5028214;28;20169;-57
2021/12/12 14:53:33;;;;;;;21.05;14.27;;;;;;;;;;5025582;28;20879;-56
2021/12/12 14:56:05;;;;;;;15.00;12.20;;;;;;;;;;4990708;28;20198;-55
2021/12/12 14:58:38;;;;;;;26.63;14.57;;;;;;;;;;4988808;28;20439;-55
2021/12/12 15:01:07;;;;;;;14.93;12.50;;;;;;;;;;4991090;28;20189;-56
2021/12/12 15:03:44;;;;;;;17.73;14.03;;;;;;;;;;5011234;28;20419;-56
2021/12/12 15:06:23;;;;;;;16.47;12.67;;;;;;;;;;5008398;28;20182;-56
2021/12/12 15:08:55;;;;;;;20.23;12.87;;;;;;;;;;5011162;28;20186;-56
2021/12/12 15:11:23;;;;;;;13.80;12.20;;;;;;;;;;5011834;28;20178;-56
2021/12/12 15:13:51;;;;;;;14.80;13.20;;;;;;;;;;5011145;28;20197;-56
2021/12/12 15:16:28;;;;;;;14.77;12.80;;;;;;;;;;4998608;28;20208;-55
2021/12/12 15:18:54;;;;;;;14.93;11.83;;;;;;;;;;5003724;28;20206;-55
2021/12/12 15:21:32;;;;;;;13.43;12.03;;;;;;;;;;5001975;28;20206;-56